Pagrindinis puslapis
METAR-TAF:

METAR-TAF

Oro uostai :

Draughon-Miller Central Texas Regional Airport

Temple, Teksasas, Jungtinės Amerikos Valstijos

platuma: 31-09N, ilguma: 097-24W, Aukštis: 208 m

Dabartinis oras

Ataskaita buvo paskelbta 49 minutes, ne 10:51 UTC
Vėjas 6 kt iš Šiaurės/Šiaurės Vakarų
Temperatūra 19°C
Drėgmė 100%
Slėgis 1019 hPa
Matomumas: 16.1 km
Su prošvaistėmis ne aukštis 4500 ft
Su prošvaistėmis ne aukštis 5000 ft

METAR: KTPL 291051Z AUTO 33006KT 10SM BKN045 BKN050 19/19 A3009 RMK AO2 SLP180 T01890189

Laikas: 06:40 (11:40 UTC)


TAF: trūkstamas

Orai ataskaitas ir orų prognozės (METAR, TAF).

turimą stotys yra geltonos ir raudonos taškus žemėlapyje.

Perkelti pele per norėdami pamatyti stoties vardą.

Tada spustelėkite, norėdami matyti oro stebėjimo ir prognozės.

Norėdami pakeisti žemėlapį: spustelėkite ant žalios mygtukų su juodo kryžiaus žemyn,; žalią mygtuką su brūkšneliu, jei norite nutolinti; arba žalių rodyklių gretimoms žemėlapius.


METAR-TAF: